createdAt,value
2023-10-19T00:02:09.923Z,12.40
2023-10-19T00:04:39.184Z,12.40
2023-10-19T00:07:09.079Z,11.90
2023-10-19T00:09:39.864Z,12.30
2023-10-19T00:12:10.809Z,12.30
2023-10-19T00:14:37.920Z,12.20
2023-10-19T00:17:12.072Z,11.20
2023-10-19T00:19:42.577Z,12.20
2023-10-19T00:22:15.402Z,12.20
2023-10-19T00:24:42.926Z,12.20
2023-10-19T00:27:17.206Z,12.30
2023-10-19T00:29:50.235Z,12.40
2023-10-19T00:32:20.230Z,11.90
2023-10-19T00:34:52.999Z,12.20
2023-10-19T00:37:27.620Z,12.20
2023-10-19T00:39:57.575Z,12.30
2023-10-19T00:42:32.298Z,12.30
2023-10-19T00:45:05.923Z,12.40
2023-10-19T00:47:41.111Z,12.40
2023-10-19T00:50:15.970Z,12.40
2023-10-19T00:52:50.864Z,12.60
2023-10-19T00:55:22.466Z,12.50
2023-10-19T00:57:55.489Z,12.50
2023-10-19T01:00:31.650Z,12.60
2023-10-19T01:03:06.216Z,12.60
2023-10-19T01:05:37.862Z,12.70
2023-10-19T01:08:20.608Z,12.60
2023-10-19T01:10:53.431Z,12.60
2023-10-19T01:13:28.235Z,12.70
2023-10-19T01:15:57.443Z,12.70
2023-10-19T01:18:30.388Z,12.70
2023-10-19T01:20:58.604Z,12.80
2023-10-19T01:23:31.042Z,12.70
2023-10-19T01:26:06.880Z,12.70
2023-10-19T01:28:48.905Z,12.70
2023-10-19T01:31:23.997Z,12.60
2023-10-19T01:33:55.528Z,12.50
2023-10-19T01:36:29.588Z,12.40
2023-10-19T01:39:02.327Z,12.60
2023-10-19T01:41:32.236Z,12.30
2023-10-19T01:44:05.724Z,12.30
2023-10-19T01:46:35.826Z,12.30
2023-10-19T01:49:04.993Z,12.30
2023-10-19T01:51:39.296Z,12.30
2023-10-19T01:54:09.798Z,12.20
2023-10-19T01:56:39.794Z,12.20
2023-10-19T01:59:09.252Z,12.50
2023-10-19T02:01:39.308Z,12.20
2023-10-19T02:04:10.358Z,12.20
2023-10-19T02:06:39.697Z,12.20
2023-10-19T02:09:18.822Z,12.20
2023-10-19T02:11:48.663Z,12.40
2023-10-19T02:14:16.947Z,12.50
2023-10-19T02:16:45.625Z,12.50
2023-10-19T02:19:12.792Z,12.60
2023-10-19T02:21:41.531Z,12.50
2023-10-19T02:24:15.436Z,12.60
2023-10-19T02:26:44.844Z,12.50
2023-10-19T02:29:13.675Z,11.30
2023-10-19T02:31:42.979Z,12.50
2023-10-19T02:34:11.779Z,12.50
2023-10-19T02:36:41.476Z,12.40
2023-10-19T02:39:11.051Z,12.40
2023-10-19T02:41:40.181Z,12.30
2023-10-19T02:44:11.453Z,12.30
2023-10-19T02:46:41.172Z,12.20
2023-10-19T02:49:13.016Z,12.10
2023-10-19T02:51:41.019Z,12.10
2023-10-19T02:54:17.162Z,12.00
2023-10-19T02:56:48.611Z,12.00
2023-10-19T02:59:16.946Z,12.00
2023-10-19T03:01:46.908Z,12.00
2023-10-19T03:04:14.165Z,12.00
2023-10-19T03:06:42.649Z,11.90
2023-10-19T03:09:14.676Z,11.90
2023-10-19T03:11:43.225Z,11.90
2023-10-19T03:14:10.509Z,12.00
2023-10-19T03:16:42.366Z,11.90
2023-10-19T03:19:09.862Z,11.80
2023-10-19T03:21:44.099Z,11.90
2023-10-19T03:24:14.097Z,11.80
2023-10-19T03:26:49.714Z,11.80
2023-10-19T03:29:19.363Z,11.70
2023-10-19T03:31:48.605Z,11.70
2023-10-19T03:34:17.948Z,11.70
2023-10-19T03:36:46.756Z,11.60
2023-10-19T03:39:16.476Z,11.60
2023-10-19T03:41:45.463Z,11.50
2023-10-19T03:44:20.276Z,11.50
2023-10-19T03:46:59.190Z,11.50
2023-10-19T03:49:34.457Z,11.30
2023-10-19T03:52:21.205Z,11.50
2023-10-19T03:54:51.532Z,11.30
2023-10-19T03:57:26.173Z,11.40
2023-10-19T03:59:57.929Z,11.30
2023-10-19T04:02:28.568Z,11.40
2023-10-19T04:04:58.582Z,11.40
2023-10-19T04:07:27.911Z,11.30
2023-10-19T04:10:10.913Z,11.30
2023-10-19T04:12:43.384Z,11.30
2023-10-19T04:15:14.943Z,11.10
2023-10-19T04:17:43.740Z,11.20
2023-10-19T04:20:29.557Z,11.30
2023-10-19T04:22:59.083Z,11.20
2023-10-19T04:25:30.672Z,11.20
2023-10-19T04:27:59.160Z,11.20
2023-10-19T04:30:27.737Z,11.20
2023-10-19T04:32:58.845Z,11.20
2023-10-19T04:35:31.273Z,11.20
2023-10-19T04:38:00.900Z,11.20
2023-10-19T04:40:30.602Z,11.10
2023-10-19T04:42:59.228Z,11.10
2023-10-19T04:45:27.449Z,11.20
2023-10-19T04:47:56.847Z,11.00
2023-10-19T04:50:25.009Z,11.00
2023-10-19T04:52:53.232Z,11.00
2023-10-19T04:55:21.478Z,10.90
2023-10-19T04:57:51.216Z,11.00
2023-10-19T05:00:22.146Z,10.90
2023-10-19T05:02:53.238Z,11.00
2023-10-19T05:05:21.763Z,11.00
2023-10-19T05:07:50.025Z,11.10
2023-10-19T05:10:18.392Z,11.10
2023-10-19T05:12:46.507Z,11.20
2023-10-19T05:15:17.029Z,11.30
2023-10-19T05:17:45.157Z,11.40
2023-10-19T05:20:13.849Z,11.50
2023-10-19T05:22:42.014Z,11.60
2023-10-19T05:25:10.384Z,11.60
2023-10-19T05:27:40.414Z,11.70
2023-10-19T05:30:11.479Z,11.60
2023-10-19T05:32:41.324Z,11.80
2023-10-19T05:35:14.379Z,11.80
2023-10-19T05:37:42.758Z,11.90
2023-10-19T05:40:16.180Z,11.90
2023-10-19T05:42:44.517Z,11.90
2023-10-19T05:45:14.317Z,11.90
2023-10-19T05:47:44.849Z,11.90
2023-10-19T05:50:15.684Z,11.70
2023-10-19T05:52:44.476Z,12.00
2023-10-19T05:55:12.962Z,11.90
2023-10-19T05:57:42.373Z,12.10
2023-10-19T06:00:14.585Z,12.10
2023-10-19T06:02:46.848Z,12.10
2023-10-19T06:05:16.637Z,12.10
2023-10-19T06:07:45.191Z,12.10
2023-10-19T06:10:17.014Z,12.20
2023-10-19T06:12:45.676Z,12.30
2023-10-19T06:15:14.487Z,12.30
2023-10-19T06:17:46.112Z,12.40
2023-10-19T06:20:24.931Z,12.50
2023-10-19T06:22:54.798Z,12.40
2023-10-19T06:25:25.038Z,12.50
2023-10-19T06:27:54.624Z,12.50
2023-10-19T06:30:24.259Z,12.60
2023-10-19T06:32:55.370Z,12.60
2023-10-19T06:35:24.712Z,12.50
2023-10-19T06:37:52.884Z,12.60
2023-10-19T06:40:21.721Z,12.60
2023-10-19T06:42:50.369Z,12.60
2023-10-19T06:45:20.140Z,12.70
2023-10-19T06:47:50.828Z,12.70
2023-10-19T06:50:21.675Z,12.80
2023-10-19T06:52:50.197Z,12.80
2023-10-19T06:55:20.975Z,12.90
2023-10-19T06:57:51.449Z,12.90
2023-10-19T07:00:21.704Z,12.90
2023-10-19T07:02:51.900Z,13.10
2023-10-19T07:05:23.539Z,13.00
2023-10-19T07:07:53.205Z,13.00
2023-10-19T07:10:21.894Z,13.00
2023-10-19T07:12:52.910Z,12.90
2023-10-19T07:15:21.209Z,13.00
2023-10-19T07:17:49.359Z,13.00
2023-10-19T07:20:26.753Z,13.00
2023-10-19T07:22:57.723Z,13.10
2023-10-19T07:25:27.150Z,13.30
2023-10-19T07:27:55.893Z,13.40
2023-10-19T07:30:27.639Z,13.50
2023-10-19T07:32:59.752Z,13.50
2023-10-19T07:35:28.610Z,13.70
2023-10-19T07:37:58.884Z,13.80
2023-10-19T07:40:27.231Z,13.90
2023-10-19T07:42:56.231Z,13.90
2023-10-19T07:45:24.522Z,14.10
2023-10-19T07:47:52.747Z,14.20
2023-10-19T07:50:23.653Z,14.30
2023-10-19T07:52:53.673Z,14.40
2023-10-19T07:55:24.894Z,14.50
2023-10-19T07:57:53.493Z,14.60
2023-10-19T08:00:22.413Z,14.60
2023-10-19T08:02:50.627Z,14.70
2023-10-19T08:05:20.387Z,14.70
2023-10-19T08:07:49.515Z,14.70
2023-10-19T08:10:19.665Z,14.70
2023-10-19T08:12:51.090Z,14.70
2023-10-19T08:15:21.062Z,14.90
2023-10-19T08:17:51.757Z,14.90
2023-10-19T08:20:24.449Z,15.00
2023-10-19T08:22:54.428Z,15.10
2023-10-19T08:25:23.003Z,15.20
2023-10-19T08:27:53.064Z,15.30
2023-10-19T08:30:26.249Z,15.40
2023-10-19T08:32:58.085Z,15.50
2023-10-19T08:35:27.029Z,15.70
2023-10-19T08:37:56.185Z,15.70
2023-10-19T08:40:27.976Z,15.90
2023-10-19T08:42:57.721Z,16.00
2023-10-19T08:45:27.099Z,16.10
2023-10-19T08:47:58.743Z,16.20
2023-10-19T08:50:27.909Z,16.30
2023-10-19T08:52:57.711Z,16.40
2023-10-19T08:55:40.946Z,16.50
2023-10-19T08:58:17.239Z,16.60
2023-10-19T09:00:48.952Z,16.70
2023-10-19T09:03:19.056Z,16.80
2023-10-19T09:05:48.278Z,16.90
2023-10-19T09:08:18.551Z,17.00
2023-10-19T09:10:48.006Z,17.10
2023-10-19T09:13:20.381Z,17.20
2023-10-19T09:15:51.120Z,17.20
2023-10-19T09:18:21.348Z,17.30
2023-10-19T09:20:55.082Z,17.30
2023-10-19T09:23:23.838Z,17.40
2023-10-19T09:25:54.057Z,17.30
2023-10-19T09:28:25.350Z,17.20
2023-10-19T09:30:54.659Z,17.30
2023-10-19T09:33:25.377Z,17.30
2023-10-19T09:35:54.990Z,17.40
2023-10-19T09:38:23.734Z,17.40
2023-10-19T09:40:52.007Z,17.50
2023-10-19T09:43:29.486Z,17.60
2023-10-19T09:46:01.513Z,17.70
2023-10-19T09:48:30.000Z,17.60
2023-10-19T09:50:59.883Z,17.60
2023-10-19T09:53:29.497Z,17.70
2023-10-19T09:56:01.149Z,17.60
2023-10-19T09:58:35.910Z,17.60
2023-10-19T10:01:04.966Z,17.60
2023-10-19T10:03:46.623Z,17.60
2023-10-19T10:06:16.110Z,17.60
2023-10-19T10:08:46.042Z,17.60
2023-10-19T10:11:20.174Z,17.70
2023-10-19T10:13:53.250Z,17.70
2023-10-19T10:16:24.546Z,17.70
2023-10-19T10:18:56.683Z,17.80
2023-10-19T10:21:26.271Z,17.80
2023-10-19T10:23:56.158Z,17.80
2023-10-19T10:26:26.671Z,17.90
2023-10-19T10:29:14.712Z,17.80
2023-10-19T10:31:47.568Z,17.80
2023-10-19T10:34:45.808Z,17.70
2023-10-19T10:37:15.595Z,17.60
2023-10-19T10:39:46.177Z,17.60
2023-10-19T10:42:16.057Z,17.60
2023-10-19T10:44:47.078Z,17.60
2023-10-19T10:47:23.042Z,17.60
2023-10-19T10:49:54.059Z,17.50
2023-10-19T10:52:30.720Z,17.50
2023-10-19T10:54:59.969Z,17.40
2023-10-19T10:57:34.264Z,17.30
2023-10-19T11:00:09.571Z,17.30
2023-10-19T11:02:41.468Z,17.40
2023-10-19T11:05:13.326Z,17.30
2023-10-19T11:08:04.162Z,17.30
2023-10-19T11:10:33.192Z,17.30
2023-10-19T11:13:05.267Z,17.30
2023-10-19T11:15:35.182Z,17.30
2023-10-19T11:18:03.780Z,17.10
2023-10-19T11:20:32.459Z,17.10
2023-10-19T11:23:02.032Z,16.90
2023-10-19T11:25:31.685Z,16.90
2023-10-19T11:28:00.973Z,17.00
2023-10-19T11:30:30.867Z,17.10
2023-10-19T11:33:02.558Z,16.90
2023-10-19T11:35:32.689Z,16.90
2023-10-19T11:38:03.748Z,16.90
2023-10-19T11:40:32.118Z,17.30
2023-10-19T11:43:01.926Z,17.10
2023-10-19T11:45:31.049Z,17.30
2023-10-19T11:48:00.990Z,17.50
2023-10-19T11:50:29.535Z,17.30
2023-10-19T11:52:58.529Z,17.30
2023-10-19T11:55:26.898Z,17.40
2023-10-19T11:57:54.950Z,17.40
2023-10-19T12:00:26.037Z,17.30
2023-10-19T12:02:54.526Z,17.30
2023-10-19T12:05:25.156Z,17.30
2023-10-19T12:07:53.507Z,17.30
2023-10-19T12:10:26.905Z,17.20
2023-10-19T12:13:02.040Z,17.20
2023-10-19T12:15:32.148Z,17.00
2023-10-19T12:18:00.906Z,17.10
2023-10-19T12:20:32.194Z,16.90
2023-10-19T12:23:02.005Z,16.90
2023-10-19T12:25:50.199Z,16.80
2023-10-19T12:28:21.664Z,16.80
2023-10-19T12:30:49.920Z,16.70
2023-10-19T12:33:18.147Z,16.70
2023-10-19T12:35:50.790Z,16.70
2023-10-19T12:38:19.060Z,16.80
2023-10-19T12:40:48.515Z,16.80
2023-10-19T12:43:19.804Z,16.90
2023-10-19T12:45:54.808Z,17.00
2023-10-19T12:48:23.110Z,17.20
2023-10-19T12:50:52.581Z,17.00
2023-10-19T12:53:23.576Z,17.00
2023-10-19T12:55:51.750Z,16.90
2023-10-19T12:58:20.912Z,16.70
2023-10-19T13:00:49.941Z,16.90
2023-10-19T13:03:19.785Z,17.00
2023-10-19T13:05:48.326Z,16.90
2023-10-19T13:08:19.914Z,17.00
2023-10-19T13:10:53.283Z,17.00
2023-10-19T13:13:25.149Z,17.10
2023-10-19T13:15:54.948Z,17.40
2023-10-19T13:18:29.090Z,17.30
2023-10-19T13:20:58.633Z,17.40
2023-10-19T13:23:31.532Z,17.50
2023-10-19T13:26:12.762Z,17.50
2023-10-19T13:28:42.075Z,17.60
2023-10-19T13:31:11.086Z,17.70
2023-10-19T13:33:39.382Z,17.70
2023-10-19T13:36:07.893Z,17.70
2023-10-19T13:38:37.378Z,17.80
2023-10-19T13:41:08.751Z,17.70
2023-10-19T13:43:39.232Z,17.60
2023-10-19T13:46:08.081Z,17.50
2023-10-19T13:48:37.256Z,17.50
2023-10-19T13:51:14.181Z,17.50
2023-10-19T13:53:46.334Z,17.50
2023-10-19T13:56:16.001Z,17.50
2023-10-19T13:58:44.690Z,17.50
2023-10-19T14:01:17.375Z,17.50
2023-10-19T14:03:47.036Z,17.40
2023-10-19T14:06:16.217Z,17.30
2023-10-19T14:08:46.236Z,17.20
2023-10-19T14:11:14.358Z,17.20
2023-10-19T14:13:43.622Z,17.10
2023-10-19T14:16:12.808Z,17.50
2023-10-19T14:18:41.183Z,17.40
2023-10-19T14:21:17.269Z,17.30
2023-10-19T14:23:47.241Z,17.30
2023-10-19T14:26:16.005Z,17.10
2023-10-19T14:28:44.239Z,17.20
2023-10-19T14:31:13.559Z,17.20
2023-10-19T14:33:42.060Z,17.20
2023-10-19T14:36:11.889Z,17.10
2023-10-19T14:38:40.752Z,17.10
2023-10-19T14:41:11.223Z,17.10
2023-10-19T14:43:39.851Z,17.00
2023-10-19T14:46:08.547Z,17.20
2023-10-19T14:48:37.746Z,17.10
2023-10-19T14:51:06.792Z,17.10
2023-10-19T14:53:35.489Z,17.10
2023-10-19T14:56:03.965Z,17.10
2023-10-19T14:58:33.481Z,17.00
2023-10-19T15:01:01.765Z,17.10
2023-10-19T15:03:30.695Z,17.10
2023-10-19T15:06:00.732Z,17.10
2023-10-19T15:08:32.398Z,17.10
2023-10-19T15:11:01.091Z,17.10
2023-10-19T15:13:29.586Z,17.10
2023-10-19T15:15:59.076Z,17.10
2023-10-19T15:18:27.315Z,17.30
2023-10-19T15:20:55.416Z,17.30
2023-10-19T15:23:23.885Z,17.30
2023-10-19T15:25:52.542Z,17.20
2023-10-19T15:28:20.842Z,17.20
2023-10-19T15:30:49.495Z,17.20
2023-10-19T15:33:20.549Z,17.20
2023-10-19T15:35:50.184Z,17.20
2023-10-19T15:38:18.344Z,17.30
2023-10-19T15:40:46.484Z,17.20
2023-10-19T15:43:14.639Z,17.10
2023-10-19T15:45:45.151Z,17.10
2023-10-19T15:48:13.912Z,17.00
2023-10-19T15:50:43.445Z,17.00
2023-10-19T15:53:12.026Z,16.90
2023-10-19T15:55:40.226Z,16.80
2023-10-19T15:58:09.945Z,16.80
2023-10-19T16:00:39.887Z,16.70
2023-10-19T16:03:08.192Z,16.60
2023-10-19T16:05:37.414Z,16.60
2023-10-19T16:08:07.885Z,16.60
2023-10-19T16:10:37.541Z,16.60
2023-10-19T16:13:05.987Z,16.50
2023-10-19T16:15:34.239Z,16.40
2023-10-19T16:18:02.485Z,16.50
2023-10-19T16:20:30.802Z,16.50
2023-10-19T16:23:00.193Z,16.50
2023-10-19T16:25:30.058Z,16.30
2023-10-19T16:27:58.300Z,16.20
2023-10-19T16:30:28.007Z,16.30
2023-10-19T16:32:56.156Z,16.20
2023-10-19T16:35:24.303Z,16.00
2023-10-19T16:37:52.435Z,15.90
2023-10-19T16:40:21.403Z,15.80
2023-10-19T16:42:50.830Z,15.80
2023-10-19T16:45:19.004Z,15.70
2023-10-19T16:47:47.765Z,15.70
2023-10-19T16:50:20.012Z,15.70
2023-10-19T16:52:49.114Z,15.60
2023-10-19T16:55:17.457Z,15.60
2023-10-19T16:57:45.544Z,15.60
2023-10-19T17:00:16.134Z,15.60
2023-10-19T17:02:44.787Z,15.80
2023-10-19T17:05:13.702Z,15.60
2023-10-19T17:07:42.446Z,15.60
2023-10-19T17:10:11.766Z,15.60
2023-10-19T17:12:40.049Z,15.60
2023-10-19T17:15:13.558Z,15.70
2023-10-19T17:17:44.756Z,15.60
2023-10-19T17:20:13.796Z,15.70
2023-10-19T17:22:42.230Z,15.60
2023-10-19T17:25:10.890Z,15.70
2023-10-19T17:27:39.189Z,15.70
2023-10-19T17:30:08.528Z,15.60
2023-10-19T17:32:36.893Z,15.60
2023-10-19T17:35:07.305Z,15.60
2023-10-19T17:37:36.156Z,15.50
2023-10-19T17:40:05.925Z,15.40
2023-10-19T17:42:34.118Z,15.40
2023-10-19T17:45:02.340Z,15.40
2023-10-19T17:47:30.600Z,15.30
2023-10-19T17:49:59.035Z,15.40
2023-10-19T17:52:28.970Z,15.50
2023-10-19T17:54:57.211Z,15.40
2023-10-19T17:57:26.445Z,15.40
2023-10-19T17:59:54.779Z,15.40
2023-10-19T18:02:23.150Z,15.30
2023-10-19T18:04:54.385Z,15.40
2023-10-19T18:07:23.357Z,15.40
2023-10-19T18:09:54.043Z,15.40
2023-10-19T18:12:22.911Z,15.50
2023-10-19T18:14:51.099Z,15.50
2023-10-19T18:17:19.816Z,15.60
2023-10-19T18:19:48.336Z,15.40
2023-10-19T18:22:16.711Z,15.30
2023-10-19T18:24:45.077Z,15.20
2023-10-19T18:27:14.558Z,15.10
2023-10-19T18:29:45.115Z,15.10
2023-10-19T18:32:13.407Z,15.20
2023-10-19T18:34:41.737Z,15.10
2023-10-19T18:37:09.908Z,15.10
2023-10-19T18:39:38.169Z,15.10
2023-10-19T18:42:10.368Z,15.10
2023-10-19T18:44:40.255Z,15.20
2023-10-19T18:47:08.515Z,15.10
2023-10-19T18:49:36.860Z,15.20
2023-10-19T18:52:08.532Z,15.10
2023-10-19T18:54:38.644Z,15.10
2023-10-19T18:57:07.824Z,15.10
2023-10-19T18:59:36.021Z,15.10
2023-10-19T19:02:07.253Z,15.00
2023-10-19T19:04:36.016Z,15.00
2023-10-19T19:07:04.494Z,14.90
2023-10-19T19:09:32.992Z,14.90
2023-10-19T19:12:01.340Z,14.90
2023-10-19T19:14:29.905Z,14.90
2023-10-19T19:17:00.420Z,15.00
2023-10-19T19:19:30.222Z,14.90
2023-10-19T19:21:58.393Z,14.50
2023-10-19T19:24:25.662Z,14.90
2023-10-19T19:26:53.813Z,14.90
2023-10-19T19:29:23.818Z,14.90
2023-10-19T19:31:52.373Z,14.90
2023-10-19T19:34:20.625Z,14.80
2023-10-19T19:36:50.123Z,14.70
2023-10-19T19:39:19.463Z,14.80
2023-10-19T19:41:48.263Z,14.60
2023-10-19T19:44:16.513Z,14.60
2023-10-19T19:46:44.798Z,14.60
2023-10-19T19:49:15.603Z,14.60
2023-10-19T19:51:44.540Z,14.60
2023-10-19T19:54:14.043Z,14.50
2023-10-19T19:56:42.472Z,14.50
2023-10-19T19:59:10.642Z,14.40
2023-10-19T20:01:38.900Z,14.50
2023-10-19T20:04:07.798Z,14.40
2023-10-19T20:06:38.087Z,14.40
2023-10-19T20:09:11.526Z,14.50
2023-10-19T20:11:41.823Z,14.60
2023-10-19T20:14:10.128Z,14.70
2023-10-19T20:16:38.334Z,14.60
2023-10-19T20:19:07.429Z,14.60
2023-10-19T20:21:35.717Z,14.60
2023-10-19T20:24:07.430Z,14.70
2023-10-19T20:26:35.827Z,15.00
2023-10-19T20:29:07.321Z,14.40
2023-10-19T20:31:35.667Z,14.50
2023-10-19T20:34:04.032Z,14.50
2023-10-19T20:36:32.156Z,14.40
2023-10-19T20:39:02.229Z,14.50
2023-10-19T20:41:30.979Z,14.50
2023-10-19T20:44:00.327Z,14.60
2023-10-19T20:46:31.303Z,14.50
2023-10-19T20:49:00.874Z,14.40
2023-10-19T20:51:29.055Z,14.40
2023-10-19T20:53:57.422Z,14.50
2023-10-19T20:56:27.509Z,14.60
2023-10-19T20:58:55.832Z,14.40
2023-10-19T21:01:23.930Z,14.30
2023-10-19T21:03:53.822Z,14.30
2023-10-19T21:06:22.050Z,14.20
2023-10-19T21:08:50.135Z,14.20
2023-10-19T21:11:19.712Z,14.10
2023-10-19T21:13:48.428Z,14.20
2023-10-19T21:16:17.121Z,14.20
2023-10-19T21:18:45.488Z,14.10
2023-10-19T21:21:15.657Z,14.00
2023-10-19T21:23:43.834Z,14.20
2023-10-19T21:26:12.672Z,14.40
2023-10-19T21:28:41.811Z,14.20
2023-10-19T21:31:11.351Z,14.20
2023-10-19T21:33:39.978Z,14.00
2023-10-19T21:36:08.360Z,14.00
2023-10-19T21:38:39.248Z,14.00
2023-10-19T21:41:07.434Z,13.90
2023-10-19T21:43:35.688Z,14.00
2023-10-19T21:46:04.062Z,14.00
2023-10-19T21:48:32.290Z,14.00
2023-10-19T21:51:01.011Z,14.50
2023-10-19T21:53:29.402Z,13.90
2023-10-19T21:55:59.071Z,14.20
2023-10-19T21:58:26.342Z,14.00
2023-10-19T22:01:00.826Z,13.90
2023-10-19T22:03:29.318Z,13.90
2023-10-19T22:05:57.695Z,14.00
2023-10-19T22:08:26.003Z,13.90
2023-10-19T22:10:55.991Z,13.80
2023-10-19T22:13:25.617Z,13.60
2023-10-19T22:15:53.768Z,13.60
2023-10-19T22:18:23.556Z,13.60
2023-10-19T22:20:56.122Z,13.40
2023-10-19T22:23:24.713Z,13.50
2023-10-19T22:25:53.216Z,13.50
2023-10-19T22:28:21.809Z,13.50
2023-10-19T22:30:51.250Z,13.80
2023-10-19T22:33:19.401Z,13.70
2023-10-19T22:35:50.357Z,13.70
2023-10-19T22:38:18.529Z,13.80
2023-10-19T22:40:46.942Z,13.70
2023-10-19T22:43:15.040Z,13.70
2023-10-19T22:45:44.225Z,13.80
2023-10-19T22:48:13.901Z,13.90
2023-10-19T22:50:42.111Z,13.90
2023-10-19T22:53:10.911Z,14.10
2023-10-19T22:55:39.103Z,13.80
2023-10-19T22:58:07.242Z,13.70
2023-10-19T23:00:35.410Z,13.80
2023-10-19T23:03:03.671Z,13.70
2023-10-19T23:05:33.726Z,13.70
2023-10-19T23:08:02.108Z,13.70
2023-10-19T23:10:32.924Z,13.90
2023-10-19T23:13:02.195Z,13.90
2023-10-19T23:15:40.671Z,13.90
2023-10-19T23:18:11.745Z,13.90
2023-10-19T23:20:42.992Z,13.90
2023-10-19T23:23:13.969Z,13.90
2023-10-19T23:25:51.060Z,13.90
2023-10-19T23:28:19.233Z,13.90
2023-10-19T23:30:48.349Z,13.90
2023-10-19T23:33:16.484Z,13.80
2023-10-19T23:35:46.030Z,13.90
2023-10-19T23:38:15.938Z,14.00
2023-10-19T23:40:44.435Z,13.90
2023-10-19T23:43:12.604Z,14.00
2023-10-19T23:45:40.769Z,13.90
2023-10-19T23:48:11.991Z,14.00
2023-10-19T23:50:40.391Z,13.80
2023-10-19T23:53:10.409Z,14.00
2023-10-19T23:55:41.676Z,14.00
2023-10-19T23:58:10.061Z,14.00
